createdAt,value
2022-08-17T00:03:49.234Z,20.40
2022-08-17T00:13:59.447Z,20.31
2022-08-17T00:24:03.538Z,20.23
2022-08-17T00:34:10.033Z,20.36
2022-08-17T00:44:13.802Z,20.12
2022-08-17T00:54:24.048Z,19.97
2022-08-17T01:04:30.396Z,19.90
2022-08-17T01:14:35.928Z,20.13
2022-08-17T01:24:46.038Z,19.69
2022-08-17T01:34:50.884Z,19.73
2022-08-17T01:44:59.807Z,19.84
2022-08-17T01:55:05.758Z,19.97
2022-08-17T02:05:10.930Z,19.93
2022-08-17T02:15:16.720Z,19.72
2022-08-17T02:25:22.940Z,19.70
2022-08-17T02:35:29.471Z,19.70
2022-08-17T02:45:35.170Z,19.51
2022-08-17T02:55:41.594Z,19.38
2022-08-17T03:05:53.067Z,19.45
2022-08-17T03:15:56.694Z,19.32
2022-08-17T03:26:02.152Z,19.14
2022-08-17T03:36:07.865Z,19.05
2022-08-17T03:46:34.390Z,19.13
2022-08-17T03:56:45.518Z,19.06
2022-08-17T04:06:50.852Z,19.16
2022-08-17T04:16:54.561Z,19.15
2022-08-17T04:26:59.698Z,19.17
2022-08-17T04:37:03.454Z,19.35
2022-08-17T04:47:11.336Z,19.36
2022-08-17T04:57:16.934Z,19.50
2022-08-17T05:07:24.631Z,19.77
2022-08-17T05:17:29.935Z,19.90
2022-08-17T05:27:36.431Z,19.99
2022-08-17T05:37:40.131Z,20.24
2022-08-17T05:47:47.667Z,20.85
2022-08-17T05:58:08.962Z,21.60
2022-08-17T06:08:28.130Z,21.56
2022-08-17T06:18:39.787Z,21.99
2022-08-17T06:28:51.965Z,22.03
2022-08-17T06:39:10.512Z,22.20
2022-08-17T06:49:25.124Z,22.56
2022-08-17T06:59:55.643Z,22.87
2022-08-17T07:10:02.484Z,23.15
2022-08-17T07:20:10.771Z,23.34
2022-08-17T07:30:20.610Z,23.45
2022-08-17T07:40:30.869Z,23.81
2022-08-17T07:50:36.104Z,24.07
2022-08-17T08:00:41.216Z,24.68
2022-08-17T08:11:07.102Z,24.93
2022-08-17T08:21:19.552Z,24.80
2022-08-17T08:31:43.874Z,24.24
2022-08-17T08:41:58.406Z,24.33
2022-08-17T08:52:06.492Z,24.31
2022-08-17T09:02:40.746Z,24.18
2022-08-17T09:12:56.405Z,24.23
2022-08-17T09:23:07.860Z,24.16
2022-08-17T09:33:17.612Z,24.57
2022-08-17T09:43:32.159Z,25.18
2022-08-17T09:53:39.925Z,25.96
2022-08-17T10:04:12.119Z,25.81
2022-08-17T10:14:36.928Z,26.32
2022-08-17T10:25:22.066Z,26.87
2022-08-17T10:35:42.821Z,27.20
2022-08-17T10:46:09.531Z,27.89
2022-08-17T10:56:57.712Z,27.84
2022-08-17T11:07:22.370Z,28.17
2022-08-17T11:18:01.363Z,27.64
2022-08-17T11:28:15.523Z,27.22
2022-08-17T11:38:29.354Z,27.09
2022-08-17T11:48:59.967Z,27.74
2022-08-17T12:00:10.423Z,28.20
2022-08-17T12:10:17.252Z,28.18
2022-08-17T12:20:28.112Z,28.22
2022-08-17T12:30:31.923Z,28.15
2022-08-17T12:40:37.268Z,28.31
2022-08-17T12:50:44.422Z,29.03
2022-08-17T13:00:57.021Z,29.13
2022-08-17T13:11:03.473Z,29.49
2022-08-17T13:21:22.163Z,29.47
2022-08-17T13:31:51.837Z,30.20
2022-08-17T13:41:58.192Z,30.23
2022-08-17T13:52:02.111Z,30.34
2022-08-17T14:02:11.498Z,29.60
2022-08-17T14:12:19.405Z,29.82
2022-08-17T14:22:30.475Z,30.13
2022-08-17T14:32:38.371Z,30.18
2022-08-17T14:42:46.186Z,30.75
2022-08-17T14:52:50.561Z,30.96
2022-08-17T15:02:58.472Z,30.67
2022-08-17T15:13:02.871Z,30.35
2022-08-17T15:23:09.563Z,30.50
2022-08-17T15:33:18.833Z,30.52
2022-08-17T15:43:28.231Z,30.49
2022-08-17T15:53:33.250Z,30.69
2022-08-17T16:04:01.496Z,31.06
2022-08-17T16:14:03.090Z,31.61
2022-08-17T16:24:13.626Z,31.95
2022-08-17T16:34:19.063Z,32.54
2022-08-17T16:44:25.665Z,32.17
2022-08-17T16:54:29.603Z,31.16
2022-08-17T17:04:38.217Z,31.02
2022-08-17T17:14:47.250Z,31.91
2022-08-17T17:25:05.382Z,33.94
2022-08-17T17:35:17.510Z,35.31
2022-08-17T17:45:26.712Z,33.43
2022-08-17T17:55:59.470Z,34.28
2022-08-17T18:06:22.469Z,31.51
2022-08-17T18:16:31.915Z,29.32
2022-08-17T18:26:53.485Z,28.32
2022-08-17T18:37:00.010Z,27.47
2022-08-17T18:47:16.299Z,26.83
2022-08-17T18:57:31.570Z,26.33
2022-08-17T19:07:40.033Z,25.88
2022-08-17T19:17:50.229Z,25.46
2022-08-17T19:28:01.063Z,25.14
2022-08-17T19:38:15.546Z,24.90
2022-08-17T19:48:37.191Z,24.53
2022-08-17T19:58:57.805Z,24.30
2022-08-17T20:09:15.223Z,24.12
2022-08-17T20:19:28.995Z,23.97
2022-08-17T20:30:09.302Z,23.67
2022-08-17T20:40:22.983Z,23.33
2022-08-17T20:50:33.392Z,22.92
2022-08-17T21:00:47.069Z,22.86
2022-08-17T21:10:55.046Z,22.57
2022-08-17T21:21:16.891Z,22.67
2022-08-17T21:31:43.056Z,22.87
2022-08-17T21:41:52.931Z,23.04
2022-08-17T21:51:58.154Z,22.84
2022-08-17T22:02:05.633Z,22.83
2022-08-17T22:12:16.123Z,22.89
2022-08-17T22:22:58.773Z,22.85
2022-08-17T22:33:37.435Z,22.74
2022-08-17T22:43:43.760Z,22.68
2022-08-17T22:54:10.507Z,22.59
2022-08-17T23:04:33.487Z,22.16
2022-08-17T23:14:42.384Z,22.05
2022-08-17T23:24:49.915Z,21.88
2022-08-17T23:34:55.021Z,21.79
2022-08-17T23:44:58.828Z,21.58
2022-08-17T23:55:05.823Z,21.39
